sensor_id;sensor_type;location;lat;lon;timestamp;pressure;altitude;pressure_sealevel;temperature;humidity
67015;BME280;1033;52.560;13.374;2022-10-31T00:01:58;101328.38;;;12.28;100.00
67015;BME280;1033;52.560;13.374;2022-10-31T00:04:27;101323.94;;;12.20;100.00
67015;BME280;1033;52.560;13.374;2022-10-31T00:06:56;101324.44;;;11.96;100.00
67015;BME280;1033;52.560;13.374;2022-10-31T00:09:26;101318.81;;;12.38;100.00
67015;BME280;1033;52.560;13.374;2022-10-31T00:11:55;101326.41;;;12.76;100.00
67015;BME280;1033;52.560;13.374;2022-10-31T00:14:24;101329.59;;;12.92;100.00
67015;BME280;1033;52.560;13.374;2022-10-31T00:16:52;101331.91;;;13.22;99.36
67015;BME280;1033;52.560;13.374;2022-10-31T00:19:21;101336.66;;;13.92;95.13
67015;BME280;1033;52.560;13.374;2022-10-31T00:21:51;101336.63;;;14.05;92.88
67015;BME280;1033;52.560;13.374;2022-10-31T00:24:20;101344.13;;;14.16;92.20
67015;BME280;1033;52.560;13.374;2022-10-31T00:26:50;101345.06;;;13.77;92.17
67015;BME280;1033;52.560;13.374;2022-10-31T00:29:21;101339.41;;;13.72;93.06
67015;BME280;1033;52.560;13.374;2022-10-31T00:31:51;101337.56;;;13.46;93.78
67015;BME280;1033;52.560;13.374;2022-10-31T00:34:20;101340.88;;;13.09;95.37
67015;BME280;1033;52.560;13.374;2022-10-31T00:36:48;101344.19;;;12.98;97.50
67015;BME280;1033;52.560;13.374;2022-10-31T00:39:17;101339.81;;;13.03;98.04
67015;BME280;1033;52.560;13.374;2022-10-31T00:41:46;101339.19;;;13.08;97.98
67015;BME280;1033;52.560;13.374;2022-10-31T00:44:16;101342.13;;;13.00;98.20
67015;BME280;1033;52.560;13.374;2022-10-31T00:46:46;101347.13;;;12.90;98.95
67015;BME280;1033;52.560;13.374;2022-10-31T00:49:14;101347.34;;;12.95;99.35
67015;BME280;1033;52.560;13.374;2022-10-31T00:51:43;101349.28;;;13.21;98.31
67015;BME280;1033;52.560;13.374;2022-10-31T00:54:12;101345.53;;;13.35;96.96
67015;BME280;1033;52.560;13.374;2022-10-31T00:56:41;101351.78;;;13.48;96.57
67015;BME280;1033;52.560;13.374;2022-10-31T00:59:09;101355.94;;;13.71;96.07
67015;BME280;1033;52.560;13.374;2022-10-31T01:01:39;101355.31;;;13.56;95.52
67015;BME280;1033;52.560;13.374;2022-10-31T01:04:08;101358.72;;;13.44;96.19
67015;BME280;1033;52.560;13.374;2022-10-31T01:06:37;101361.00;;;13.47;96.29
67015;BME280;1033;52.560;13.374;2022-10-31T01:09:05;101355.97;;;13.58;96.38
67015;BME280;1033;52.560;13.374;2022-10-31T01:11:34;101355.97;;;13.58;96.13
67015;BME280;1033;52.560;13.374;2022-10-31T01:14:08;101363.91;;;13.46;95.58
67015;BME280;1033;52.560;13.374;2022-10-31T01:16:36;101370.63;;;13.30;95.93
67015;BME280;1033;52.560;13.374;2022-10-31T01:19:07;101371.44;;;13.37;97.62
67015;BME280;1033;52.560;13.374;2022-10-31T01:21:35;101371.84;;;13.67;95.80
67015;BME280;1033;52.560;13.374;2022-10-31T01:24:05;101368.09;;;13.62;95.93
67015;BME280;1033;52.560;13.374;2022-10-31T01:26:37;101373.50;;;13.75;96.07
67015;BME280;1033;52.560;13.374;2022-10-31T01:29:08;101365.16;;;13.57;96.33
67015;BME280;1033;52.560;13.374;2022-10-31T01:31:38;101367.69;;;13.58;96.87
67015;BME280;1033;52.560;13.374;2022-10-31T01:34:14;101366.44;;;13.34;97.87
67015;BME280;1033;52.560;13.374;2022-10-31T01:36:45;101373.13;;;13.65;96.93
67015;BME280;1033;52.560;13.374;2022-10-31T01:39:19;101366.19;;;13.82;96.70
67015;BME280;1033;52.560;13.374;2022-10-31T01:41:50;101379.34;;;13.98;96.00
67015;BME280;1033;52.560;13.374;2022-10-31T01:44:51;101379.06;;;14.19;94.93
67015;BME280;1033;52.560;13.374;2022-10-31T01:47:38;101373.88;;;14.11;93.71
67015;BME280;1033;52.560;13.374;2022-10-31T01:50:27;101369.78;;;13.49;96.50
67015;BME280;1033;52.560;13.374;2022-10-31T01:53:01;101369.78;;;13.63;97.06
67015;BME280;1033;52.560;13.374;2022-10-31T01:55:38;101383.00;;;14.30;93.73
67015;BME280;1033;52.560;13.374;2022-10-31T01:58:13;101379.25;;;14.24;92.90
67015;BME280;1033;52.560;13.374;2022-10-31T02:00:50;101378.06;;;14.01;93.72
67015;BME280;1033;52.560;13.374;2022-10-31T02:03:23;101382.66;;;14.13;93.75
67015;BME280;1033;52.560;13.374;2022-10-31T02:05:56;101377.88;;;13.96;93.40
67015;BME280;1033;52.560;13.374;2022-10-31T02:08:29;101388.34;;;13.92;94.09
67015;BME280;1033;52.560;13.374;2022-10-31T02:11:00;101383.56;;;13.87;93.75
67015;BME280;1033;52.560;13.374;2022-10-31T02:13:29;101381.69;;;13.68;95.11
67015;BME280;1033;52.560;13.374;2022-10-31T02:15:59;101380.03;;;13.34;96.28
67015;BME280;1033;52.560;13.374;2022-10-31T02:18:30;101384.41;;;13.42;96.84
67015;BME280;1033;52.560;13.374;2022-10-31T02:21:10;101383.38;;;13.49;96.86
67015;BME280;1033;52.560;13.374;2022-10-31T02:24:23;101379.59;;;13.37;98.26
67015;BME280;1033;52.560;13.374;2022-10-31T02:27:30;101378.56;;;13.58;97.81
67015;BME280;1033;52.560;13.374;2022-10-31T02:30:11;101384.19;;;13.76;96.05
67015;BME280;1033;52.560;13.374;2022-10-31T02:33:06;101376.47;;;13.54;95.89
67015;BME280;1033;52.560;13.374;2022-10-31T02:35:55;101376.88;;;13.24;97.29
67015;BME280;1033;52.560;13.374;2022-10-31T02:38:42;101378.34;;;13.46;98.12
67015;BME280;1033;52.560;13.374;2022-10-31T02:41:34;101379.41;;;13.59;96.21
67015;BME280;1033;52.560;13.374;2022-10-31T02:44:18;101381.47;;;13.24;96.42
67015;BME280;1033;52.560;13.374;2022-10-31T02:46:57;101379.59;;;13.37;97.25
67015;BME280;1033;52.560;13.374;2022-10-31T02:49:35;101379.81;;;13.29;96.45
67015;BME280;1033;52.560;13.374;2022-10-31T02:52:18;101380.88;;;13.48;96.18
67015;BME280;1033;52.560;13.374;2022-10-31T02:54:48;101386.69;;;13.32;95.25
67015;BME280;1033;52.560;13.374;2022-10-31T02:57:21;101385.47;;;13.74;94.80
67015;BME280;1033;52.560;13.374;2022-10-31T02:59:58;101389.81;;;13.75;93.83
67015;BME280;1033;52.560;13.374;2022-10-31T03:02:52;101396.13;;;13.49;94.10
67015;BME280;1033;52.560;13.374;2022-10-31T03:05:41;101392.38;;;13.50;94.91
67015;BME280;1033;52.560;13.374;2022-10-31T03:08:23;101399.47;;;13.25;95.50
67015;BME280;1033;52.560;13.374;2022-10-31T03:10:59;101394.03;;;13.44;97.35
67015;BME280;1033;52.560;13.374;2022-10-31T03:13:35;101400.09;;;13.46;94.58
67015;BME280;1033;52.560;13.374;2022-10-31T03:16:13;101404.47;;;13.61;94.03
67015;BME280;1033;52.560;13.374;2022-10-31T03:18:50;101400.97;;;13.60;95.51
67015;BME280;1033;52.560;13.374;2022-10-31T03:21:27;101401.78;;;13.54;95.24
67015;BME280;1033;52.560;13.374;2022-10-31T03:24:01;101405.34;;;13.55;94.18
67015;BME280;1033;52.560;13.374;2022-10-31T03:26:32;101415.16;;;13.56;95.82
67015;BME280;1033;52.560;13.374;2022-10-31T03:29:07;101416.59;;;13.32;96.63
67015;BME280;1033;52.560;13.374;2022-10-31T03:31:47;101417.47;;;13.45;95.36
67015;BME280;1033;52.560;13.374;2022-10-31T03:34:20;101417.03;;;13.48;94.52
67015;BME280;1033;52.560;13.374;2022-10-31T03:36:55;101424.13;;;13.36;95.03
67015;BME280;1033;52.560;13.374;2022-10-31T03:39:25;101426.25;;;13.34;95.23
67015;BME280;1033;52.560;13.374;2022-10-31T03:42:00;101439.41;;;13.37;96.23
67015;BME280;1033;52.560;13.374;2022-10-31T03:44:33;101435.03;;;13.63;95.25
67015;BME280;1033;52.560;13.374;2022-10-31T03:47:04;101441.31;;;13.83;93.25
67015;BME280;1033;52.560;13.374;2022-10-31T03:49:34;101435.88;;;13.83;93.55
67015;BME280;1033;52.560;13.374;2022-10-31T03:52:15;101435.03;;;13.63;93.33
67015;BME280;1033;52.560;13.374;2022-10-31T03:54:54;101448.44;;;13.77;93.66
67015;BME280;1033;52.560;13.374;2022-10-31T03:57:37;101443.41;;;13.94;93.54
67015;BME280;1033;52.560;13.374;2022-10-31T04:00:13;101442.97;;;13.90;92.37
67015;BME280;1033;52.560;13.374;2022-10-31T04:02:53;101440.06;;;13.66;92.94
67015;BME280;1033;52.560;13.374;2022-10-31T04:05:27;101441.94;;;13.52;93.91
67015;BME280;1033;52.560;13.374;2022-10-31T04:08:05;101444.88;;;13.51;95.45
67015;BME280;1033;52.560;13.374;2022-10-31T04:10:38;101441.50;;;13.42;94.59
67015;BME280;1033;52.560;13.374;2022-10-31T04:13:38;101443.81;;;13.45;93.70
67015;BME280;1033;52.560;13.374;2022-10-31T04:16:15;101444.22;;;13.62;94.96
67015;BME280;1033;52.560;13.374;2022-10-31T04:18:44;101451.34;;;13.56;93.62
67015;BME280;1033;52.560;13.374;2022-10-31T04:21:16;101450.31;;;13.51;94.30
67015;BME280;1033;52.560;13.374;2022-10-31T04:23:47;101458.25;;;13.45;94.45
67015;BME280;1033;52.560;13.374;2022-10-31T04:30:58;101462.66;;;13.86;92.93
67015;BME280;1033;52.560;13.374;2022-10-31T04:33:27;101457.63;;;13.83;92.41
67015;BME280;1033;52.560;13.374;2022-10-31T04:35:57;101453.44;;;13.54;93.10
67015;BME280;1033;52.560;13.374;2022-10-31T04:38:28;101463.06;;;13.43;93.66
67015;BME280;1033;52.560;13.374;2022-10-31T04:40:59;101462.03;;;13.58;93.57
67015;BME280;1033;52.560;13.374;2022-10-31T04:43:47;101466.00;;;13.88;91.33
67015;BME280;1033;52.560;13.374;2022-10-31T04:46:16;101462.03;;;13.58;92.16
67015;BME280;1033;52.560;13.374;2022-10-31T04:48:45;101477.03;;;13.27;94.60
67015;BME280;1033;52.560;13.374;2022-10-31T04:51:15;101467.66;;;13.76;92.71
67015;BME280;1033;52.560;13.374;2022-10-31T04:53:44;101462.63;;;13.40;91.97
67015;BME280;1033;52.560;13.374;2022-10-31T04:56:30;101463.34;;;13.01;94.67
67015;BME280;1033;52.560;13.374;2022-10-31T04:59:02;101468.47;;;12.76;96.41
67015;BME280;1033;52.560;13.374;2022-10-31T05:01:43;101474.09;;;12.75;99.38
67015;BME280;1033;52.560;13.374;2022-10-31T05:04:12;101473.34;;;12.87;98.52
67015;BME280;1033;52.560;13.374;2022-10-31T05:06:41;101470.81;;;12.86;98.88
67015;BME280;1033;52.560;13.374;2022-10-31T05:09:10;101471.44;;;12.88;98.77
67015;BME280;1033;52.560;13.374;2022-10-31T05:11:40;101473.31;;;12.81;98.60
67015;BME280;1033;52.560;13.374;2022-10-31T05:14:27;101476.66;;;12.83;98.54
67015;BME280;1033;52.560;13.374;2022-10-31T05:17:16;101474.28;;;13.14;98.30
67015;BME280;1033;52.560;13.374;2022-10-31T05:20:09;101479.72;;;13.14;97.55
67015;BME280;1033;52.560;13.374;2022-10-31T05:22:58;101487.34;;;12.91;97.98
67015;BME280;1033;52.560;13.374;2022-10-31T05:25:28;101480.00;;;12.85;98.03
67015;BME280;1033;52.560;13.374;2022-10-31T05:28:03;101486.31;;;12.92;99.17
67015;BME280;1033;52.560;13.374;2022-10-31T05:30:34;101483.47;;;13.13;97.87
67015;BME280;1033;52.560;13.374;2022-10-31T05:33:05;101487.56;;;12.96;98.43
67015;BME280;1033;52.560;13.374;2022-10-31T05:36:09;101488.44;;;13.10;97.39
67015;BME280;1033;52.560;13.374;2022-10-31T05:38:50;101487.16;;;12.92;98.26
67015;BME280;1033;52.560;13.374;2022-10-31T05:41:36;101489.66;;;12.94;97.06
67015;BME280;1033;52.560;13.374;2022-10-31T05:44:15;101490.06;;;13.78;96.07
67015;BME280;1033;52.560;13.374;2022-10-31T05:47:07;101496.34;;;13.91;93.89
67015;BME280;1033;52.560;13.374;2022-10-31T05:50:11;101494.22;;;14.20;91.86
67015;BME280;1033;52.560;13.374;2022-10-31T05:52:54;101481.91;;;13.78;92.00
67015;BME280;1033;52.560;13.374;2022-10-31T05:55:30;101482.94;;;13.70;94.46
67015;BME280;1033;52.560;13.374;2022-10-31T05:58:08;101495.72;;;14.03;92.71
67015;BME280;1033;52.560;13.374;2022-10-31T06:00:42;101500.94;;;14.37;91.57
67015;BME280;1033;52.560;13.374;2022-10-31T06:03:12;101501.56;;;14.46;89.66
67015;BME280;1033;52.560;13.374;2022-10-31T06:05:46;101507.88;;;14.13;91.24
67015;BME280;1033;52.560;13.374;2022-10-31T06:08:23;101507.00;;;14.19;91.15
67015;BME280;1033;52.560;13.374;2022-10-31T06:10:54;101502.81;;;14.23;90.28
67015;BME280;1033;52.560;13.374;2022-10-31T06:13:44;101506.59;;;14.09;91.24
67015;BME280;1033;52.560;13.374;2022-10-31T06:16:23;101507.84;;;14.26;89.42
67015;BME280;1033;52.560;13.374;2022-10-31T06:18:54;101515.56;;;14.56;87.63
67015;BME280;1033;52.560;13.374;2022-10-31T06:21:24;101509.94;;;14.31;88.13
67015;BME280;1033;52.560;13.374;2022-10-31T06:23:53;101519.78;;;14.45;87.98
67015;BME280;1033;52.560;13.374;2022-10-31T06:26:59;101522.06;;;14.55;87.85
67015;BME280;1033;52.560;13.374;2022-10-31T06:29:28;101518.09;;;14.51;87.78
67015;BME280;1033;52.560;13.374;2022-10-31T06:32:12;101525.84;;;14.54;87.81
67015;BME280;1033;52.560;13.374;2022-10-31T06:34:45;101524.78;;;14.55;86.81
67015;BME280;1033;52.560;13.374;2022-10-31T06:37:23;101526.66;;;14.48;86.62
67015;BME280;1033;52.560;13.374;2022-10-31T06:40:01;101528.78;;;14.19;89.50
67015;BME280;1033;52.560;13.374;2022-10-31T06:42:46;101527.94;;;14.19;89.31
67015;BME280;1033;52.560;13.374;2022-10-31T06:45:22;101530.47;;;14.47;88.83
67015;BME280;1033;52.560;13.374;2022-10-31T06:48:20;101530.47;;;14.40;87.04
67015;BME280;1033;52.560;13.374;2022-10-31T06:51:12;101535.91;;;14.47;87.56
67015;BME280;1033;52.560;13.374;2022-10-31T06:53:41;101532.06;;;14.67;87.82
67015;BME280;1033;52.560;13.374;2022-10-31T06:56:12;101542.13;;;14.80;85.44
67015;BME280;1033;52.560;13.374;2022-10-31T06:58:47;101545.13;;;14.32;88.02
67015;BME280;1033;52.560;13.374;2022-10-31T07:01:19;101560.56;;;14.78;85.69
67015;BME280;1033;52.560;13.374;2022-10-31T07:03:50;101554.72;;;14.28;87.63
67015;BME280;1033;52.560;13.374;2022-10-31T07:06:20;101548.03;;;14.31;88.71
67015;BME280;1033;52.560;13.374;2022-10-31T07:08:49;101558.09;;;14.57;87.23
67015;BME280;1033;52.560;13.374;2022-10-31T07:11:18;101555.81;;;15.11;85.41
67015;BME280;1033;52.560;13.374;2022-10-31T07:13:48;101559.66;;;14.97;85.04
67015;BME280;1033;52.560;13.374;2022-10-31T07:16:17;101557.19;;;14.89;85.89
67015;BME280;1033;52.560;13.374;2022-10-31T07:18:47;101553.66;;;15.27;84.25
67015;BME280;1033;52.560;13.374;2022-10-31T07:21:18;101560.50;;;15.04;85.62
67015;BME280;1033;52.560;13.374;2022-10-31T07:23:48;101562.72;;;15.65;83.73
67015;BME280;1033;52.560;13.374;2022-10-31T07:26:36;101561.59;;;15.35;84.25
67015;BME280;1033;52.560;13.374;2022-10-31T07:29:05;101561.28;;;15.62;82.54
67015;BME280;1033;52.560;13.374;2022-10-31T07:31:34;101558.16;;;15.90;81.33
67015;BME280;1033;52.560;13.374;2022-10-31T07:34:09;101560.34;;;15.75;81.94
67015;BME280;1033;52.560;13.374;2022-10-31T07:36:58;101572.84;;;15.58;82.96
67015;BME280;1033;52.560;13.374;2022-10-31T07:39:28;101571.25;;;15.75;82.78
67015;BME280;1033;52.560;13.374;2022-10-31T07:41:58;101579.41;;;15.82;82.61
67015;BME280;1033;52.560;13.374;2022-10-31T07:44:29;101583.59;;;15.53;84.41
67015;BME280;1033;52.560;13.374;2022-10-31T07:47:21;101584.53;;;15.65;83.69
67015;BME280;1033;52.560;13.374;2022-10-31T07:50:24;101576.06;;;15.80;82.51
67015;BME280;1033;52.560;13.374;2022-10-31T07:53:14;101586.75;;;15.43;85.13
67015;BME280;1033;52.560;13.374;2022-10-31T07:55:43;101598.13;;;15.27;85.13
67015;BME280;1033;52.560;13.374;2022-10-31T07:58:18;101595.22;;;15.15;87.51
67015;BME280;1033;52.560;13.374;2022-10-31T08:00:48;101589.09;;;14.75;88.57
67015;BME280;1033;52.560;13.374;2022-10-31T08:03:28;101599.50;;;15.56;85.46
67015;BME280;1033;52.560;13.374;2022-10-31T08:06:17;101606.38;;;15.65;84.33
67015;BME280;1033;52.560;13.374;2022-10-31T08:09:03;101603.56;;;15.34;85.49
67015;BME280;1033;52.560;13.374;2022-10-31T08:11:32;101606.03;;;15.42;85.70
67015;BME280;1033;52.560;13.374;2022-10-31T08:14:02;101604.75;;;15.44;85.93
67015;BME280;1033;52.560;13.374;2022-10-31T08:16:32;101604.53;;;15.90;84.57
67015;BME280;1033;52.560;13.374;2022-10-31T08:19:04;101603.91;;;15.57;84.65
67015;BME280;1033;52.560;13.374;2022-10-31T08:21:37;101600.91;;;15.65;85.22
67015;BME280;1033;52.560;13.374;2022-10-31T08:24:10;101603.75;;;16.15;83.31
67015;BME280;1033;52.560;13.374;2022-10-31T08:26:40;101607.13;;;15.79;83.45
67015;BME280;1033;52.560;13.374;2022-10-31T08:29:10;101611.28;;;15.88;83.53
67015;BME280;1033;52.560;13.374;2022-10-31T08:31:41;101618.53;;;15.69;84.40
67015;BME280;1033;52.560;13.374;2022-10-31T08:34:29;101618.09;;;15.72;84.50
67015;BME280;1033;52.560;13.374;2022-10-31T08:37:19;101619.44;;;15.56;85.75
67015;BME280;1033;52.560;13.374;2022-10-31T08:40:01;101618.59;;;15.56;85.09
67015;BME280;1033;52.560;13.374;2022-10-31T08:42:40;101613.78;;;15.89;83.83
67015;BME280;1033;52.560;13.374;2022-10-31T08:45:10;101618.50;;;15.76;84.40
67015;BME280;1033;52.560;13.374;2022-10-31T08:47:39;101606.88;;;15.42;84.96
67015;BME280;1033;52.560;13.374;2022-10-31T08:50:09;101607.66;;;15.62;85.64
67015;BME280;1033;52.560;13.374;2022-10-31T08:52:38;101600.13;;;15.58;83.92
67015;BME280;1033;52.560;13.374;2022-10-31T08:55:29;101600.47;;;16.31;82.60
67015;BME280;1033;52.560;13.374;2022-10-31T08:58:04;101600.34;;;15.50;84.35
67015;BME280;1033;52.560;13.374;2022-10-31T09:00:41;101616.78;;;15.81;84.92
67015;BME280;1033;52.560;13.374;2022-10-31T09:03:17;101612.38;;;15.80;84.03
67015;BME280;1033;52.560;13.374;2022-10-31T09:05:47;101610.81;;;15.97;83.90
67015;BME280;1033;52.560;13.374;2022-10-31T09:08:17;101621.31;;;16.50;81.57
67015;BME280;1033;52.560;13.374;2022-10-31T09:10:49;101612.72;;;16.22;81.32
67015;BME280;1033;52.560;13.374;2022-10-31T09:13:33;101614.19;;;15.93;83.36
67015;BME280;1033;52.560;13.374;2022-10-31T09:16:26;101618.63;;;16.19;83.02
67015;BME280;1033;52.560;13.374;2022-10-31T09:18:55;101618.31;;;16.33;81.20
67015;BME280;1033;52.560;13.374;2022-10-31T09:21:25;101622.50;;;16.04;82.58
67015;BME280;1033;52.560;13.374;2022-10-31T09:23:54;101625.41;;;15.78;84.34
67015;BME280;1033;52.560;13.374;2022-10-31T09:26:25;101632.41;;;15.99;84.21
67015;BME280;1033;52.560;13.374;2022-10-31T09:29:07;101632.72;;;15.84;84.99
67015;BME280;1033;52.560;13.374;2022-10-31T09:31:38;101626.03;;;16.12;84.03
67015;BME280;1033;52.560;13.374;2022-10-31T09:34:33;101637.00;;;16.05;84.25
67015;BME280;1033;52.560;13.374;2022-10-31T09:37:05;101634.13;;;16.25;82.44
67015;BME280;1033;52.560;13.374;2022-10-31T09:39:35;101633.31;;;16.18;82.69
67015;BME280;1033;52.560;13.374;2022-10-31T09:42:48;101633.75;;;16.71;82.02
67015;BME280;1033;52.560;13.374;2022-10-31T09:45:31;101637.66;;;16.81;81.04
67015;BME280;1033;52.560;13.374;2022-10-31T09:48:28;101652.53;;;16.85;80.58
67015;BME280;1033;52.560;13.374;2022-10-31T09:51:17;101651.44;;;16.68;81.30
67015;BME280;1033;52.560;13.374;2022-10-31T09:54:18;101660.03;;;16.72;81.31
67015;BME280;1033;52.560;13.374;2022-10-31T09:56:49;101652.69;;;16.90;80.94
67015;BME280;1033;52.560;13.374;2022-10-31T09:59:26;101652.75;;;17.27;79.53
67015;BME280;1033;52.560;13.374;2022-10-31T10:02:04;101646.19;;;17.10;78.83
67015;BME280;1033;52.560;13.374;2022-10-31T10:04:42;101649.63;;;17.60;78.50
67015;BME280;1033;52.560;13.374;2022-10-31T10:07:30;101649.53;;;17.30;77.27
67015;BME280;1033;52.560;13.374;2022-10-31T10:10:49;101633.50;;;17.52;78.13
67015;BME280;1033;52.560;13.374;2022-10-31T10:13:56;101639.19;;;17.50;77.41
67015;BME280;1033;52.560;13.374;2022-10-31T10:16:47;101634.34;;;17.70;77.28
67015;BME280;1033;52.560;13.374;2022-10-31T10:19:39;101629.69;;;18.01;75.56
67015;BME280;1033;52.560;13.374;2022-10-31T10:22:17;101633.59;;;18.46;74.36
67015;BME280;1033;52.560;13.374;2022-10-31T10:25:14;101627.75;;;18.43;74.45
67015;BME280;1033;52.560;13.374;2022-10-31T10:27:58;101621.19;;;18.32;74.13
67015;BME280;1033;52.560;13.374;2022-10-31T10:30:39;101624.38;;;18.17;74.16
67015;BME280;1033;52.560;13.374;2022-10-31T10:33:20;101616.06;;;18.36;74.09
67015;BME280;1033;52.560;13.374;2022-10-31T10:35:56;101620.03;;;17.98;74.39
67015;BME280;1033;52.560;13.374;2022-10-31T10:38:36;101616.59;;;18.03;75.92
67015;BME280;1033;52.560;13.374;2022-10-31T10:41:14;101608.72;;;17.95;75.83
67015;BME280;1033;52.560;13.374;2022-10-31T10:43:45;101604.56;;;18.04;75.25
67015;BME280;1033;52.560;13.374;2022-10-31T10:46:21;101608.88;;;18.11;75.26
67015;BME280;1033;52.560;13.374;2022-10-31T10:49:18;101597.72;;;18.36;74.22
67015;BME280;1033;52.560;13.374;2022-10-31T10:51:54;101600.03;;;18.62;73.69
67015;BME280;1033;52.560;13.374;2022-10-31T10:54:59;101607.38;;;18.50;73.27
67015;BME280;1033;52.560;13.374;2022-10-31T10:57:45;101605.97;;;18.48;73.34
67015;BME280;1033;52.560;13.374;2022-10-31T11:00:24;101616.19;;;18.41;73.91
67015;BME280;1033;52.560;13.374;2022-10-31T11:02:54;101603.66;;;18.21;74.15
67015;BME280;1033;52.560;13.374;2022-10-31T11:05:33;101615.56;;;18.27;74.64
67015;BME280;1033;52.560;13.374;2022-10-31T11:08:06;101610.97;;;18.39;74.37
67015;BME280;1033;52.560;13.374;2022-10-31T11:10:36;101609.53;;;18.48;74.22
67015;BME280;1033;52.560;13.374;2022-10-31T11:13:21;101605.09;;;18.36;74.06
67015;BME280;1033;52.560;13.374;2022-10-31T11:15:58;101596.75;;;18.31;74.90
67015;BME280;1033;52.560;13.374;2022-10-31T11:18:31;101592.47;;;18.23;75.57
67015;BME280;1033;52.560;13.374;2022-10-31T11:21:04;101598.44;;;18.43;75.28
67015;BME280;1033;52.560;13.374;2022-10-31T11:23:43;101588.94;;;18.81;73.21
67015;BME280;1033;52.560;13.374;2022-10-31T11:26:20;101595.09;;;18.99;72.50
67015;BME280;1033;52.560;13.374;2022-10-31T11:28:57;101592.13;;;18.89;72.73
67015;BME280;1033;52.560;13.374;2022-10-31T11:31:27;101598.56;;;18.95;72.34
67015;BME280;1033;52.560;13.374;2022-10-31T11:34:00;101591.53;;;18.99;72.59
67015;BME280;1033;52.560;13.374;2022-10-31T11:36:35;101591.06;;;18.90;72.26
67015;BME280;1033;52.560;13.374;2022-10-31T11:39:17;101589.41;;;19.01;72.24
67015;BME280;1033;52.560;13.374;2022-10-31T11:41:48;101591.41;;;18.94;72.92
67015;BME280;1033;52.560;13.374;2022-10-31T11:44:22;101593.13;;;18.72;72.98
67015;BME280;1033;52.560;13.374;2022-10-31T11:46:55;101588.34;;;18.55;73.84
67015;BME280;1033;52.560;13.374;2022-10-31T11:49:31;101599.00;;;18.22;75.42
67015;BME280;1033;52.560;13.374;2022-10-31T11:52:13;101593.91;;;18.37;75.71
67015;BME280;1033;52.560;13.374;2022-10-31T11:54:49;101583.22;;;18.59;74.74
67015;BME280;1033;52.560;13.374;2022-10-31T11:57:25;101584.78;;;18.78;73.77
67015;BME280;1033;52.560;13.374;2022-10-31T11:59:56;101591.91;;;18.79;73.96
67015;BME280;1033;52.560;13.374;2022-10-31T12:02:26;101587.22;;;19.03;73.31
67015;BME280;1033;52.560;13.374;2022-10-31T12:05:15;101580.09;;;18.79;73.55
67015;BME280;1033;52.560;13.374;2022-10-31T12:07:49;101579.53;;;18.53;74.69
67015;BME280;1033;52.560;13.374;2022-10-31T12:10:26;101589.16;;;18.79;73.74
67015;BME280;1033;52.560;13.374;2022-10-31T12:13:27;101581.63;;;18.98;73.67
67015;BME280;1033;52.560;13.374;2022-10-31T12:16:36;101578.88;;;19.09;73.11
67015;BME280;1033;52.560;13.374;2022-10-31T12:19:17;101577.41;;;19.19;73.34
67015;BME280;1033;52.560;13.374;2022-10-31T12:22:08;101574.63;;;18.90;73.86
67015;BME280;1033;52.560;13.374;2022-10-31T12:24:58;101572.88;;;18.73;74.48
67015;BME280;1033;52.560;13.374;2022-10-31T12:30:46;101560.91;;;18.79;74.40
67015;BME280;1033;52.560;13.374;2022-10-31T12:33:43;101559.22;;;19.01;73.71
67015;BME280;1033;52.560;13.374;2022-10-31T12:36:43;101561.13;;;18.89;73.35
67015;BME280;1033;52.560;13.374;2022-10-31T12:39:27;101554.19;;;18.98;73.39
67015;BME280;1033;52.560;13.374;2022-10-31T12:42:16;101559.69;;;18.98;73.68
67015;BME280;1033;52.560;13.374;2022-10-31T12:45:25;101550.44;;;18.76;74.39
67015;BME280;1033;52.560;13.374;2022-10-31T12:48:15;101543.88;;;18.77;74.54
67015;BME280;1033;52.560;13.374;2022-10-31T12:50:59;101546.84;;;18.87;73.97
67015;BME280;1033;52.560;13.374;2022-10-31T12:53:46;101556.38;;;18.96;74.17
67015;BME280;1033;52.560;13.374;2022-10-31T12:56:36;101549.81;;;18.97;73.82
67015;BME280;1033;52.560;13.374;2022-10-31T12:59:16;101554.91;;;19.17;73.57
67015;BME280;1033;52.560;13.374;2022-10-31T13:01:54;101554.94;;;19.33;72.66
67015;BME280;1033;52.560;13.374;2022-10-31T13:04:40;101546.44;;;19.46;72.24
67015;BME280;1033;52.560;13.374;2022-10-31T13:07:15;101540.34;;;19.73;71.04
67015;BME280;1033;52.560;13.374;2022-10-31T13:09:54;101538.50;;;19.62;70.98
67015;BME280;1033;52.560;13.374;2022-10-31T13:12:27;101539.19;;;19.69;70.88
67015;BME280;1033;52.560;13.374;2022-10-31T13:15:15;101543.31;;;19.55;71.36
67015;BME280;1033;52.560;13.374;2022-10-31T13:17:49;101544.38;;;19.25;72.73
67015;BME280;1033;52.560;13.374;2022-10-31T13:20:27;101536.78;;;19.04;73.09
67015;BME280;1033;52.560;13.374;2022-10-31T13:23:09;101542.47;;;19.14;73.42
67015;BME280;1033;52.560;13.374;2022-10-31T13:26:08;101542.81;;;19.18;72.99
67015;BME280;1033;52.560;13.374;2022-10-31T13:28:48;101523.16;;;19.09;73.80
67015;BME280;1033;52.560;13.374;2022-10-31T13:31:22;101530.66;;;19.14;73.89
67015;BME280;1033;52.560;13.374;2022-10-31T13:33:57;101529.50;;;18.98;73.95
67015;BME280;1033;52.560;13.374;2022-10-31T13:36:37;101537.50;;;19.11;73.96
67015;BME280;1033;52.560;13.374;2022-10-31T13:39:23;101534.91;;;19.44;73.40
67015;BME280;1033;52.560;13.374;2022-10-31T13:42:04;101528.78;;;19.42;73.51
67015;BME280;1033;52.560;13.374;2022-10-31T13:44:38;101522.44;;;19.42;72.88
67015;BME280;1033;52.560;13.374;2022-10-31T13:47:24;101524.63;;;19.12;73.90
67015;BME280;1033;52.560;13.374;2022-10-31T13:50:14;101525.06;;;19.20;73.79
67015;BME280;1033;52.560;13.374;2022-10-31T13:52:46;101520.03;;;19.17;74.67
67015;BME280;1033;52.560;13.374;2022-10-31T13:55:39;101515.75;;;19.21;74.37